Augusta, Arkansas
Current Conditions -  °F | °C
As of 6:56 PM on Tuesday 21 Oct 2014 (Local Time) from KSRC Reporting Station
Clear Clear  
Wind Chill: 18°   Ceiling: Unl
Heat Index: 18°   Visibility: 10mi
Dew Point: 11°   Wind: 0mph
Humidity: 63%   Direction: NA
Pressure: 30.07"   Gusts: NA
Location:  35.28°N, 91.37°W
Report Text: KSRC 212356Z AUTO 00000KT 10SM CLR 18/11 A3007 RMK AO2 SLP188 T01780106 10256 20178 53005 TSNO
Loading
Personal Weather Stations






























Interactive Weather Map New forecast layout! Learn more

10-Day Weather Forecast

Advertisements
Track Severe Weather on mobile